sensor_id;sensor_type;location;lat;lon;timestamp;P1;durP1;ratioP1;P2;durP2;ratioP2
77164;SDS011;66140;50.280;18.660;2023-04-25T04:01:43;2.25;;;1.90;;
77164;SDS011;66140;50.280;18.660;2023-04-25T04:04:09;2.20;;;1.45;;
77164;SDS011;66140;50.280;18.660;2023-04-25T04:06:35;3.00;;;2.20;;
77164;SDS011;66140;50.280;18.660;2023-04-25T04:09:01;2.92;;;2.55;;
77164;SDS011;66140;50.280;18.660;2023-04-25T04:11:28;2.63;;;1.77;;
77164;SDS011;66140;50.280;18.660;2023-04-25T04:13:54;5.20;;;2.67;;
77164;SDS011;66140;50.280;18.660;2023-04-25T04:16:19;3.20;;;2.20;;
77164;SDS011;66140;50.280;18.660;2023-04-25T04:18:45;4.60;;;2.45;;
77164;SDS011;66140;50.280;18.660;2023-04-25T04:21:11;3.90;;;2.03;;
77164;SDS011;66140;50.280;18.660;2023-04-25T04:23:36;4.20;;;2.28;;
77164;SDS011;66140;50.280;18.660;2023-04-25T04:26:02;5.40;;;2.72;;
77164;SDS011;66140;50.280;18.660;2023-04-25T04:28:28;4.63;;;2.60;;
77164;SDS011;66140;50.280;18.660;2023-04-25T04:30:53;5.22;;;2.92;;
77164;SDS011;66140;50.280;18.660;2023-04-25T04:33:20;3.50;;;2.40;;
77164;SDS011;66140;50.280;18.660;2023-04-25T04:35:46;3.10;;;1.98;;
77164;SDS011;66140;50.280;18.660;2023-04-25T04:38:12;2.88;;;2.17;;
77164;SDS011;66140;50.280;18.660;2023-04-25T04:43:07;4.38;;;2.33;;
77164;SDS011;66140;50.280;18.660;2023-04-25T04:45:35;5.20;;;2.88;;
77164;SDS011;66140;50.280;18.660;2023-04-25T04:48:03;3.08;;;2.30;;
77164;SDS011;66140;50.280;18.660;2023-04-25T04:50:30;4.78;;;2.72;;
77164;SDS011;66140;50.280;18.660;2023-04-25T04:52:57;3.35;;;1.98;;
77164;SDS011;66140;50.280;18.660;2023-04-25T04:55:23;4.82;;;2.30;;
77164;SDS011;66140;50.280;18.660;2023-04-25T04:57:48;4.63;;;2.35;;
77164;SDS011;66140;50.280;18.660;2023-04-25T05:00:14;3.58;;;2.38;;
77164;SDS011;66140;50.280;18.660;2023-04-25T05:02:40;6.85;;;3.40;;
77164;SDS011;66140;50.280;18.660;2023-04-25T05:05:06;3.92;;;2.42;;
77164;SDS011;66140;50.280;18.660;2023-04-25T05:07:32;4.28;;;2.70;;
77164;SDS011;66140;50.280;18.660;2023-04-25T05:09:57;5.10;;;2.97;;
77164;SDS011;66140;50.280;18.660;2023-04-25T05:12:22;3.27;;;2.13;;
77164;SDS011;66140;50.280;18.660;2023-04-25T05:17:16;6.73;;;2.67;;
77164;SDS011;66140;50.280;18.660;2023-04-25T05:19:42;4.68;;;2.90;;
77164;SDS011;66140;50.280;18.660;2023-04-25T05:22:07;4.03;;;2.95;;
77164;SDS011;66140;50.280;18.660;2023-04-25T05:24:33;4.65;;;3.20;;
77164;SDS011;66140;50.280;18.660;2023-04-25T05:26:58;6.60;;;3.38;;
77164;SDS011;66140;50.280;18.660;2023-04-25T05:29:24;5.53;;;3.05;;
77164;SDS011;66140;50.280;18.660;2023-04-25T05:31:51;4.60;;;3.30;;
77164;SDS011;66140;50.280;18.660;2023-04-25T05:34:36;5.63;;;3.22;;
77164;SDS011;66140;50.280;18.660;2023-04-25T05:37:03;5.22;;;2.38;;
77164;SDS011;66140;50.280;18.660;2023-04-25T05:39:29;5.88;;;2.75;;
77164;SDS011;66140;50.280;18.660;2023-04-25T05:41:55;6.55;;;3.75;;
77164;SDS011;66140;50.280;18.660;2023-04-25T05:44:24;5.90;;;3.65;;
77164;SDS011;66140;50.280;18.660;2023-04-25T05:46:51;4.13;;;3.17;;
77164;SDS011;66140;50.280;18.660;2023-04-25T05:49:17;3.97;;;2.40;;
77164;SDS011;66140;50.280;18.660;2023-04-25T05:51:42;6.90;;;3.95;;
77164;SDS011;66140;50.280;18.660;2023-04-25T05:54:07;5.78;;;3.25;;
77164;SDS011;66140;50.280;18.660;2023-04-25T05:56:33;5.93;;;3.50;;
77164;SDS011;66140;50.280;18.660;2023-04-25T05:58:58;5.47;;;3.72;;
77164;SDS011;66140;50.280;18.660;2023-04-25T06:01:24;4.55;;;2.67;;
77164;SDS011;66140;50.280;18.660;2023-04-25T06:03:50;6.70;;;2.90;;
77164;SDS011;66140;50.280;18.660;2023-04-25T06:06:17;4.85;;;2.78;;
77164;SDS011;66140;50.280;18.660;2023-04-25T06:08:43;4.90;;;2.70;;
77164;SDS011;66140;50.280;18.660;2023-04-25T06:11:09;7.80;;;4.07;;
77164;SDS011;66140;50.280;18.660;2023-04-25T06:13:34;8.35;;;3.80;;
77164;SDS011;66140;50.280;18.660;2023-04-25T06:16:00;5.32;;;3.15;;
77164;SDS011;66140;50.280;18.660;2023-04-25T06:18:25;8.75;;;4.05;;
77164;SDS011;66140;50.280;18.660;2023-04-25T06:20:51;6.68;;;4.03;;
77164;SDS011;66140;50.280;18.660;2023-04-25T06:23:16;5.78;;;3.78;;
77164;SDS011;66140;50.280;18.660;2023-04-25T06:25:43;5.88;;;3.65;;
77164;SDS011;66140;50.280;18.660;2023-04-25T06:28:08;6.38;;;4.18;;
77164;SDS011;66140;50.280;18.660;2023-04-25T06:30:36;6.13;;;3.57;;
77164;SDS011;66140;50.280;18.660;2023-04-25T06:33:02;3.88;;;2.55;;
77164;SDS011;66140;50.280;18.660;2023-04-25T06:35:28;8.13;;;4.30;;
77164;SDS011;66140;50.280;18.660;2023-04-25T06:37:53;7.07;;;4.30;;
77164;SDS011;66140;50.280;18.660;2023-04-25T06:40:19;5.55;;;3.65;;
77164;SDS011;66140;50.280;18.660;2023-04-25T06:42:44;6.30;;;3.70;;
77164;SDS011;66140;50.280;18.660;2023-04-25T06:45:10;8.48;;;4.18;;
77164;SDS011;66140;50.280;18.660;2023-04-25T06:47:35;7.13;;;3.97;;
77164;SDS011;66140;50.280;18.660;2023-04-25T06:50:01;8.20;;;3.92;;
77164;SDS011;66140;50.280;18.660;2023-04-25T06:52:26;6.13;;;4.00;;
77164;SDS011;66140;50.280;18.660;2023-04-25T06:54:52;6.00;;;3.58;;
77164;SDS011;66140;50.280;18.660;2023-04-25T06:57:18;6.30;;;4.28;;
77164;SDS011;66140;50.280;18.660;2023-04-25T06:59:49;5.90;;;3.50;;
77164;SDS011;66140;50.280;18.660;2023-04-25T07:02:14;7.22;;;4.20;;
77164;SDS011;66140;50.280;18.660;2023-04-25T07:04:41;6.97;;;3.50;;
77164;SDS011;66140;50.280;18.660;2023-04-25T07:07:06;5.22;;;3.50;;
77164;SDS011;66140;50.280;18.660;2023-04-25T07:09:32;6.30;;;4.07;;
77164;SDS011;66140;50.280;18.660;2023-04-25T07:11:59;6.07;;;3.88;;
77164;SDS011;66140;50.280;18.660;2023-04-25T07:14:26;6.32;;;3.25;;
77164;SDS011;66140;50.280;18.660;2023-04-25T07:16:52;6.43;;;3.67;;
77164;SDS011;66140;50.280;18.660;2023-04-25T07:19:18;6.05;;;3.65;;
77164;SDS011;66140;50.280;18.660;2023-04-25T07:21:43;5.07;;;2.78;;
77164;SDS011;66140;50.280;18.660;2023-04-25T07:24:09;11.63;;;3.78;;
77164;SDS011;66140;50.280;18.660;2023-04-25T07:26:35;6.57;;;3.85;;
77164;SDS011;66140;50.280;18.660;2023-04-25T07:29:01;8.15;;;4.57;;
77164;SDS011;66140;50.280;18.660;2023-04-25T07:31:29;6.53;;;3.25;;
77164;SDS011;66140;50.280;18.660;2023-04-25T07:36:21;6.90;;;3.80;;
77164;SDS011;66140;50.280;18.660;2023-04-25T07:38:46;9.35;;;4.05;;
77164;SDS011;66140;50.280;18.660;2023-04-25T07:41:13;7.97;;;3.55;;
77164;SDS011;66140;50.280;18.660;2023-04-25T07:43:38;6.70;;;3.88;;
77164;SDS011;66140;50.280;18.660;2023-04-25T07:46:04;4.35;;;3.22;;
77164;SDS011;66140;50.280;18.660;2023-04-25T07:48:30;5.25;;;2.70;;
77164;SDS011;66140;50.280;18.660;2023-04-25T07:50:55;4.95;;;3.70;;
77164;SDS011;66140;50.280;18.660;2023-04-25T07:53:20;9.38;;;3.58;;
77164;SDS011;66140;50.280;18.660;2023-04-25T07:55:46;7.25;;;4.38;;
77164;SDS011;66140;50.280;18.660;2023-04-25T07:58:12;8.93;;;4.22;;
77164;SDS011;66140;50.280;18.660;2023-04-25T08:00:37;5.88;;;3.65;;
77164;SDS011;66140;50.280;18.660;2023-04-25T08:03:03;5.30;;;3.42;;
77164;SDS011;66140;50.280;18.660;2023-04-25T08:05:29;5.88;;;2.33;;
77164;SDS011;66140;50.280;18.660;2023-04-25T08:07:54;11.43;;;6.30;;
77164;SDS011;66140;50.280;18.660;2023-04-25T08:10:21;5.53;;;3.67;;
77164;SDS011;66140;50.280;18.660;2023-04-25T08:12:48;6.13;;;4.03;;
77164;SDS011;66140;50.280;18.660;2023-04-25T08:15:14;5.35;;;3.28;;
77164;SDS011;66140;50.280;18.660;2023-04-25T08:17:40;6.18;;;3.38;;
77164;SDS011;66140;50.280;18.660;2023-04-25T08:20:06;5.18;;;2.80;;
77164;SDS011;66140;50.280;18.660;2023-04-25T08:22:31;9.98;;;4.18;;
77164;SDS011;66140;50.280;18.660;2023-04-25T08:24:57;7.88;;;4.35;;
77164;SDS011;66140;50.280;18.660;2023-04-25T08:27:23;7.68;;;4.50;;
77164;SDS011;66140;50.280;18.660;2023-04-25T08:29:48;8.00;;;4.43;;
77164;SDS011;66140;50.280;18.660;2023-04-25T08:32:15;5.25;;;3.22;;
77164;SDS011;66140;50.280;18.660;2023-04-25T08:34:41;5.00;;;3.25;;
77164;SDS011;66140;50.280;18.660;2023-04-25T08:37:09;7.95;;;4.15;;
77164;SDS011;66140;50.280;18.660;2023-04-25T08:39:37;5.55;;;3.85;;
77164;SDS011;66140;50.280;18.660;2023-04-25T08:42:05;3.85;;;2.97;;
77164;SDS011;66140;50.280;18.660;2023-04-25T08:44:34;6.35;;;3.40;;
77164;SDS011;66140;50.280;18.660;2023-04-25T08:47:03;4.70;;;3.03;;
77164;SDS011;66140;50.280;18.660;2023-04-25T08:49:33;4.57;;;2.75;;
77164;SDS011;66140;50.280;18.660;2023-04-25T08:52:00;5.18;;;3.13;;
77164;SDS011;66140;50.280;18.660;2023-04-25T08:54:29;5.13;;;2.80;;
77164;SDS011;66140;50.280;18.660;2023-04-25T08:56:56;5.65;;;3.17;;
77164;SDS011;66140;50.280;18.660;2023-04-25T08:59:26;5.35;;;3.10;;
77164;SDS011;66140;50.280;18.660;2023-04-25T09:01:58;3.90;;;2.75;;
77164;SDS011;66140;50.280;18.660;2023-04-25T09:04:23;4.32;;;2.47;;
77164;SDS011;66140;50.280;18.660;2023-04-25T09:06:48;7.05;;;3.00;;
77164;SDS011;66140;50.280;18.660;2023-04-25T09:09:14;9.73;;;2.78;;
77164;SDS011;66140;50.280;18.660;2023-04-25T09:11:39;5.30;;;2.88;;
77164;SDS011;66140;50.280;18.660;2023-04-25T09:14:17;3.42;;;2.13;;
77164;SDS011;66140;50.280;18.660;2023-04-25T09:16:58;2.88;;;2.05;;
77164;SDS011;66140;50.280;18.660;2023-04-25T09:19:32;3.25;;;2.03;;
77164;SDS011;66140;50.280;18.660;2023-04-25T09:22:03;5.30;;;3.30;;
77164;SDS011;66140;50.280;18.660;2023-04-25T09:24:32;6.97;;;2.90;;
77164;SDS011;66140;50.280;18.660;2023-04-25T09:26:59;6.00;;;3.00;;
77164;SDS011;66140;50.280;18.660;2023-04-25T09:29:30;7.38;;;2.67;;
77164;SDS011;66140;50.280;18.660;2023-04-25T09:34:42;3.15;;;2.38;;
77164;SDS011;66140;50.280;18.660;2023-04-25T09:37:10;4.72;;;2.30;;
77164;SDS011;66140;50.280;18.660;2023-04-25T09:39:39;2.58;;;1.90;;
77164;SDS011;66140;50.280;18.660;2023-04-25T09:42:05;3.70;;;2.22;;
77164;SDS011;66140;50.280;18.660;2023-04-25T09:44:31;3.35;;;1.88;;
77164;SDS011;66140;50.280;18.660;2023-04-25T09:46:56;2.97;;;1.83;;
77164;SDS011;66140;50.280;18.660;2023-04-25T09:49:22;3.63;;;2.42;;
77164;SDS011;66140;50.280;18.660;2023-04-25T09:51:59;4.10;;;2.42;;
77164;SDS011;66140;50.280;18.660;2023-04-25T09:54:25;5.35;;;1.70;;
77164;SDS011;66140;50.280;18.660;2023-04-25T09:56:52;1.95;;;1.40;;
77164;SDS011;66140;50.280;18.660;2023-04-25T09:59:22;4.00;;;2.40;;
77164;SDS011;66140;50.280;18.660;2023-04-25T10:01:50;3.97;;;2.55;;
77164;SDS011;66140;50.280;18.660;2023-04-25T10:04:20;3.78;;;2.63;;
77164;SDS011;66140;50.280;18.660;2023-04-25T10:09:20;3.67;;;2.17;;
77164;SDS011;66140;50.280;18.660;2023-04-25T10:11:51;4.60;;;2.38;;
77164;SDS011;66140;50.280;18.660;2023-04-25T10:14:54;3.38;;;1.98;;
77164;SDS011;66140;50.280;18.660;2023-04-25T10:17:33;3.10;;;2.47;;
77164;SDS011;66140;50.280;18.660;2023-04-25T10:20:02;5.65;;;2.65;;
77164;SDS011;66140;50.280;18.660;2023-04-25T10:22:44;3.20;;;2.13;;
77164;SDS011;66140;50.280;18.660;2023-04-25T10:25:13;3.08;;;2.70;;
77164;SDS011;66140;50.280;18.660;2023-04-25T10:27:46;5.22;;;2.70;;
77164;SDS011;66140;50.280;18.660;2023-04-25T10:30:18;2.63;;;2.00;;
77164;SDS011;66140;50.280;18.660;2023-04-25T10:32:51;4.03;;;2.42;;
77164;SDS011;66140;50.280;18.660;2023-04-25T10:35:24;4.25;;;2.20;;
77164;SDS011;66140;50.280;18.660;2023-04-25T10:38:04;4.63;;;2.95;;
77164;SDS011;66140;50.280;18.660;2023-04-25T10:40:37;4.57;;;2.50;;
77164;SDS011;66140;50.280;18.660;2023-04-25T10:45:56;5.25;;;2.20;;
77164;SDS011;66140;50.280;18.660;2023-04-25T10:48:25;4.85;;;2.50;;
77164;SDS011;66140;50.280;18.660;2023-04-25T10:51:15;3.75;;;2.55;;
77164;SDS011;66140;50.280;18.660;2023-04-25T10:53:41;4.80;;;2.33;;
77164;SDS011;66140;50.280;18.660;2023-04-25T10:56:16;4.65;;;2.53;;
77164;SDS011;66140;50.280;18.660;2023-04-25T10:58:43;2.92;;;2.60;;
77164;SDS011;66140;50.280;18.660;2023-04-25T11:01:10;4.38;;;2.80;;
77164;SDS011;66140;50.280;18.660;2023-04-25T11:03:42;3.92;;;2.50;;
77164;SDS011;66140;50.280;18.660;2023-04-25T11:06:23;3.40;;;2.20;;
77164;SDS011;66140;50.280;18.660;2023-04-25T11:11:40;4.93;;;2.03;;
77164;SDS011;66140;50.280;18.660;2023-04-25T11:14:06;4.72;;;2.20;;
77164;SDS011;66140;50.280;18.660;2023-04-25T11:16:32;3.92;;;2.47;;
77164;SDS011;66140;50.280;18.660;2023-04-25T11:18:58;6.65;;;2.72;;
77164;SDS011;66140;50.280;18.660;2023-04-25T11:21:26;2.42;;;2.20;;
77164;SDS011;66140;50.280;18.660;2023-04-25T11:23:56;3.75;;;2.45;;
77164;SDS011;66140;50.280;18.660;2023-04-25T11:26:24;4.25;;;2.95;;
77164;SDS011;66140;50.280;18.660;2023-04-25T11:28:50;4.18;;;2.85;;
77164;SDS011;66140;50.280;18.660;2023-04-25T11:31:16;3.47;;;2.35;;
77164;SDS011;66140;50.280;18.660;2023-04-25T11:33:46;4.63;;;2.40;;
77164;SDS011;66140;50.280;18.660;2023-04-25T11:36:12;5.57;;;2.60;;
77164;SDS011;66140;50.280;18.660;2023-04-25T11:38:37;4.60;;;2.50;;
77164;SDS011;66140;50.280;18.660;2023-04-25T11:41:02;3.47;;;2.40;;
77164;SDS011;66140;50.280;18.660;2023-04-25T11:43:28;4.78;;;3.15;;
77164;SDS011;66140;50.280;18.660;2023-04-25T11:45:53;4.82;;;2.58;;
77164;SDS011;66140;50.280;18.660;2023-04-25T11:48:19;4.05;;;2.63;;
77164;SDS011;66140;50.280;18.660;2023-04-25T11:50:45;4.75;;;2.60;;
77164;SDS011;66140;50.280;18.660;2023-04-25T11:53:10;4.38;;;3.00;;
77164;SDS011;66140;50.280;18.660;2023-04-25T11:55:36;2.97;;;2.20;;
77164;SDS011;66140;50.280;18.660;2023-04-25T11:58:03;5.25;;;2.40;;
77164;SDS011;66140;50.280;18.660;2023-04-25T12:00:29;2.72;;;2.20;;
77164;SDS011;66140;50.280;18.660;2023-04-25T12:02:55;3.50;;;2.00;;
77164;SDS011;66140;50.280;18.660;2023-04-25T12:05:27;3.50;;;2.53;;
77164;SDS011;66140;50.280;18.660;2023-04-25T12:07:54;3.72;;;2.35;;
77164;SDS011;66140;50.280;18.660;2023-04-25T12:10:20;3.40;;;2.30;;
77164;SDS011;66140;50.280;18.660;2023-04-25T12:12:46;4.20;;;2.45;;
77164;SDS011;66140;50.280;18.660;2023-04-25T12:15:16;3.17;;;2.40;;
77164;SDS011;66140;50.280;18.660;2023-04-25T12:17:49;5.18;;;3.05;;
77164;SDS011;66140;50.280;18.660;2023-04-25T12:20:17;3.88;;;1.95;;
77164;SDS011;66140;50.280;18.660;2023-04-25T12:22:45;3.97;;;2.70;;
77164;SDS011;66140;50.280;18.660;2023-04-25T12:25:12;2.58;;;2.33;;
77164;SDS011;66140;50.280;18.660;2023-04-25T12:27:39;4.97;;;2.70;;
77164;SDS011;66140;50.280;18.660;2023-04-25T12:30:09;4.38;;;2.25;;
77164;SDS011;66140;50.280;18.660;2023-04-25T12:32:38;5.03;;;2.78;;
77164;SDS011;66140;50.280;18.660;2023-04-25T12:35:04;2.83;;;2.20;;
77164;SDS011;66140;50.280;18.660;2023-04-25T12:37:31;5.72;;;2.92;;
77164;SDS011;66140;50.280;18.660;2023-04-25T12:39:56;4.55;;;3.38;;
77164;SDS011;66140;50.280;18.660;2023-04-25T12:42:22;4.82;;;3.03;;
77164;SDS011;66140;50.280;18.660;2023-04-25T12:44:47;3.55;;;3.08;;
77164;SDS011;66140;50.280;18.660;2023-04-25T12:47:13;3.75;;;2.97;;
77164;SDS011;66140;50.280;18.660;2023-04-25T12:49:39;4.70;;;2.78;;
77164;SDS011;66140;50.280;18.660;2023-04-25T12:52:04;4.88;;;3.33;;
77164;SDS011;66140;50.280;18.660;2023-04-25T12:54:29;3.70;;;2.65;;
77164;SDS011;66140;50.280;18.660;2023-04-25T12:56:56;5.18;;;3.13;;
77164;SDS011;66140;50.280;18.660;2023-04-25T12:59:22;5.80;;;2.97;;
77164;SDS011;66140;50.280;18.660;2023-04-25T13:01:48;5.90;;;3.17;;
77164;SDS011;66140;50.280;18.660;2023-04-25T13:04:14;7.30;;;3.05;;
77164;SDS011;66140;50.280;18.660;2023-04-25T13:06:39;3.05;;;2.72;;
77164;SDS011;66140;50.280;18.660;2023-04-25T13:09:05;5.57;;;3.22;;
77164;SDS011;66140;50.280;18.660;2023-04-25T13:11:31;4.07;;;3.08;;
77164;SDS011;66140;50.280;18.660;2023-04-25T13:13:57;4.95;;;3.15;;
77164;SDS011;66140;50.280;18.660;2023-04-25T13:16:22;5.70;;;3.30;;
77164;SDS011;66140;50.280;18.660;2023-04-25T13:18:49;3.72;;;3.00;;
77164;SDS011;66140;50.280;18.660;2023-04-25T13:21:15;6.00;;;3.47;;
77164;SDS011;66140;50.280;18.660;2023-04-25T13:23:43;4.20;;;3.08;;
77164;SDS011;66140;50.280;18.660;2023-04-25T13:26:11;7.40;;;4.47;;
77164;SDS011;66140;50.280;18.660;2023-04-25T13:28:37;5.65;;;3.17;;
77164;SDS011;66140;50.280;18.660;2023-04-25T13:31:02;4.30;;;3.00;;
77164;SDS011;66140;50.280;18.660;2023-04-25T13:33:28;6.38;;;3.00;;
77164;SDS011;66140;50.280;18.660;2023-04-25T13:35:54;3.80;;;2.90;;
77164;SDS011;66140;50.280;18.660;2023-04-25T13:38:21;4.63;;;3.17;;
77164;SDS011;66140;50.280;18.660;2023-04-25T13:40:47;5.28;;;3.00;;
77164;SDS011;66140;50.280;18.660;2023-04-25T13:43:12;3.75;;;2.75;;
77164;SDS011;66140;50.280;18.660;2023-04-25T13:45:39;4.68;;;2.83;;
77164;SDS011;66140;50.280;18.660;2023-04-25T13:48:04;4.80;;;2.95;;
77164;SDS011;66140;50.280;18.660;2023-04-25T13:50:30;3.75;;;2.75;;
77164;SDS011;66140;50.280;18.660;2023-04-25T13:52:56;2.90;;;2.53;;
77164;SDS011;66140;50.280;18.660;2023-04-25T13:55:22;5.43;;;3.00;;
77164;SDS011;66140;50.280;18.660;2023-04-25T13:57:48;4.22;;;2.60;;
77164;SDS011;66140;50.280;18.660;2023-04-25T14:00:19;6.95;;;3.50;;
77164;SDS011;66140;50.280;18.660;2023-04-25T14:02:47;3.70;;;2.38;;
77164;SDS011;66140;50.280;18.660;2023-04-25T14:05:26;5.28;;;3.03;;
77164;SDS011;66140;50.280;18.660;2023-04-25T14:07:51;5.57;;;3.05;;
77164;SDS011;66140;50.280;18.660;2023-04-25T14:10:18;5.70;;;3.00;;
77164;SDS011;66140;50.280;18.660;2023-04-25T14:12:44;3.20;;;2.75;;
77164;SDS011;66140;50.280;18.660;2023-04-25T14:15:12;2.88;;;2.55;;
77164;SDS011;66140;50.280;18.660;2023-04-25T14:20:09;4.03;;;2.28;;
77164;SDS011;66140;50.280;18.660;2023-04-25T14:22:38;10.25;;;2.95;;
77164;SDS011;66140;50.280;18.660;2023-04-25T14:25:08;4.88;;;2.13;;
77164;SDS011;66140;50.280;18.660;2023-04-25T14:27:35;4.47;;;2.55;;
77164;SDS011;66140;50.280;18.660;2023-04-25T14:30:02;4.05;;;2.75;;
77164;SDS011;66140;50.280;18.660;2023-04-25T14:32:31;3.25;;;2.45;;
77164;SDS011;66140;50.280;18.660;2023-04-25T14:35:04;5.75;;;2.45;;
77164;SDS011;66140;50.280;18.660;2023-04-25T14:37:30;3.67;;;2.40;;
77164;SDS011;66140;50.280;18.660;2023-04-25T14:39:56;3.53;;;2.10;;
77164;SDS011;66140;50.280;18.660;2023-04-25T14:45:14;2.38;;;2.00;;
77164;SDS011;66140;50.280;18.660;2023-04-25T14:47:40;4.22;;;2.50;;
77164;SDS011;66140;50.280;18.660;2023-04-25T14:50:06;6.43;;;2.47;;
77164;SDS011;66140;50.280;18.660;2023-04-25T14:52:33;2.65;;;2.45;;
77164;SDS011;66140;50.280;18.660;2023-04-25T14:54:59;3.80;;;2.30;;
77164;SDS011;66140;50.280;18.660;2023-04-25T14:57:27;4.47;;;2.63;;
77164;SDS011;66140;50.280;18.660;2023-04-25T14:59:59;3.92;;;2.60;;
77164;SDS011;66140;50.280;18.660;2023-04-25T15:02:34;3.17;;;2.30;;
77164;SDS011;66140;50.280;18.660;2023-04-25T15:05:11;4.85;;;3.13;;
77164;SDS011;66140;50.280;18.660;2023-04-25T15:07:38;3.60;;;2.47;;
77164;SDS011;66140;50.280;18.660;2023-04-25T15:10:07;6.90;;;2.90;;
77164;SDS011;66140;50.280;18.660;2023-04-25T15:12:39;4.68;;;2.55;;
77164;SDS011;66140;50.280;18.660;2023-04-25T15:15:05;4.20;;;2.45;;
77164;SDS011;66140;50.280;18.660;2023-04-25T15:17:37;3.85;;;2.58;;
77164;SDS011;66140;50.280;18.660;2023-04-25T15:20:03;2.83;;;2.53;;
77164;SDS011;66140;50.280;18.660;2023-04-25T15:22:41;4.88;;;2.63;;
77164;SDS011;66140;50.280;18.660;2023-04-25T15:25:10;4.88;;;2.80;;
77164;SDS011;66140;50.280;18.660;2023-04-25T15:30:10;3.97;;;2.80;;
77164;SDS011;66140;50.280;18.660;2023-04-25T15:35:40;5.20;;;2.80;;
77164;SDS011;66140;50.280;18.660;2023-04-25T15:38:11;4.93;;;3.00;;
77164;SDS011;66140;50.280;18.660;2023-04-25T15:40:42;4.80;;;2.38;;
77164;SDS011;66140;50.280;18.660;2023-04-25T15:43:20;4.97;;;3.30;;
77164;SDS011;66140;50.280;18.660;2023-04-25T15:46:05;3.05;;;2.38;;
77164;SDS011;66140;50.280;18.660;2023-04-25T15:48:53;3.90;;;1.90;;
77164;SDS011;66140;50.280;18.660;2023-04-25T15:51:20;5.28;;;2.30;;
77164;SDS011;66140;50.280;18.660;2023-04-25T15:53:46;4.03;;;1.92;;
77164;SDS011;66140;50.280;18.660;2023-04-25T15:56:11;4.15;;;2.53;;
77164;SDS011;66140;50.280;18.660;2023-04-25T15:58:37;3.22;;;2.05;;
77164;SDS011;66140;50.280;18.660;2023-04-25T16:01:02;3.92;;;2.30;;
77164;SDS011;66140;50.280;18.660;2023-04-25T16:03:29;4.50;;;2.40;;
77164;SDS011;66140;50.280;18.660;2023-04-25T16:06:01;4.95;;;2.15;;
77164;SDS011;66140;50.280;18.660;2023-04-25T16:08:27;3.58;;;1.80;;
77164;SDS011;66140;50.280;18.660;2023-04-25T16:11:09;3.55;;;2.03;;
77164;SDS011;66140;50.280;18.660;2023-04-25T16:14:05;4.68;;;2.10;;
77164;SDS011;66140;50.280;18.660;2023-04-25T16:16:32;6.63;;;2.70;;
77164;SDS011;66140;50.280;18.660;2023-04-25T16:18:59;3.80;;;1.88;;
77164;SDS011;66140;50.280;18.660;2023-04-25T16:21:35;2.75;;;1.60;;
77164;SDS011;66140;50.280;18.660;2023-04-25T16:24:03;4.60;;;2.55;;
77164;SDS011;66140;50.280;18.660;2023-04-25T16:26:29;4.68;;;1.95;;
77164;SDS011;66140;50.280;18.660;2023-04-25T16:28:54;4.53;;;2.15;;
77164;SDS011;66140;50.280;18.660;2023-04-25T16:31:20;4.63;;;2.05;;
77164;SDS011;66140;50.280;18.660;2023-04-25T16:33:45;3.70;;;1.42;;
77164;SDS011;66140;50.280;18.660;2023-04-25T16:36:12;2.72;;;1.70;;
77164;SDS011;66140;50.280;18.660;2023-04-25T16:38:40;5.82;;;2.00;;
77164;SDS011;66140;50.280;18.660;2023-04-25T16:41:07;6.00;;;2.50;;
77164;SDS011;66140;50.280;18.660;2023-04-25T16:43:32;3.42;;;1.75;;
77164;SDS011;66140;50.280;18.660;2023-04-25T16:45:58;5.20;;;2.03;;
77164;SDS011;66140;50.280;18.660;2023-04-25T16:48:24;4.10;;;1.70;;
77164;SDS011;66140;50.280;18.660;2023-04-25T16:50:50;2.17;;;1.58;;
77164;SDS011;66140;50.280;18.660;2023-04-25T16:53:20;4.63;;;2.05;;
77164;SDS011;66140;50.280;18.660;2023-04-25T16:55:47;3.08;;;1.50;;
77164;SDS011;66140;50.280;18.660;2023-04-25T16:58:12;7.78;;;2.63;;
77164;SDS011;66140;50.280;18.660;2023-04-25T17:00:40;11.73;;;5.05;;
77164;SDS011;66140;50.280;18.660;2023-04-25T17:03:08;16.17;;;6.32;;
77164;SDS011;66140;50.280;18.660;2023-04-25T17:05:34;8.65;;;3.90;;
77164;SDS011;66140;50.280;18.660;2023-04-25T17:08:01;8.63;;;2.95;;
77164;SDS011;66140;50.280;18.660;2023-04-25T17:10:32;11.80;;;4.57;;
77164;SDS011;66140;50.280;18.660;2023-04-25T17:13:04;11.77;;;3.13;;
77164;SDS011;66140;50.280;18.660;2023-04-25T17:15:30;10.23;;;3.08;;
77164;SDS011;66140;50.280;18.660;2023-04-25T17:17:57;5.65;;;2.15;;
77164;SDS011;66140;50.280;18.660;2023-04-25T17:20:24;8.27;;;3.78;;
77164;SDS011;66140;50.280;18.660;2023-04-25T17:22:55;13.77;;;4.55;;
77164;SDS011;66140;50.280;18.660;2023-04-25T17:25:22;9.32;;;3.03;;
77164;SDS011;66140;50.280;18.660;2023-04-25T17:27:48;5.85;;;2.28;;
77164;SDS011;66140;50.280;18.660;2023-04-25T17:30:17;6.40;;;2.60;;
77164;SDS011;66140;50.280;18.660;2023-04-25T17:32:43;5.00;;;1.98;;
77164;SDS011;66140;50.280;18.660;2023-04-25T17:35:10;4.60;;;2.25;;
77164;SDS011;66140;50.280;18.660;2023-04-25T17:37:37;4.90;;;2.15;;
77164;SDS011;66140;50.280;18.660;2023-04-25T17:40:03;6.30;;;1.80;;
77164;SDS011;66140;50.280;18.660;2023-04-25T17:42:32;3.20;;;1.90;;
77164;SDS011;66140;50.280;18.660;2023-04-25T17:45:00;3.47;;;2.22;;
77164;SDS011;66140;50.280;18.660;2023-04-25T17:47:27;7.13;;;2.63;;
77164;SDS011;66140;50.280;18.660;2023-04-25T17:49:56;5.38;;;2.35;;
77164;SDS011;66140;50.280;18.660;2023-04-25T17:52:27;9.07;;;3.15;;
77164;SDS011;66140;50.280;18.660;2023-04-25T17:57:18;3.43;;;1.80;;
77164;SDS011;66140;50.280;18.660;2023-04-25T17:59:46;4.15;;;2.05;;
77164;SDS011;66140;50.280;18.660;2023-04-25T18:02:16;2.95;;;2.00;;
77164;SDS011;66140;50.280;18.660;2023-04-25T18:04:42;4.20;;;2.22;;
77164;SDS011;66140;50.280;18.660;2023-04-25T18:07:07;3.20;;;2.00;;
77164;SDS011;66140;50.280;18.660;2023-04-25T18:09:33;2.72;;;1.75;;
77164;SDS011;66140;50.280;18.660;2023-04-25T18:11:59;4.80;;;2.38;;
77164;SDS011;66140;50.280;18.660;2023-04-25T18:14:25;3.10;;;1.98;;
77164;SDS011;66140;50.280;18.660;2023-04-25T18:16:53;2.60;;;1.98;;
77164;SDS011;66140;50.280;18.660;2023-04-25T18:19:19;4.65;;;1.98;;
77164;SDS011;66140;50.280;18.660;2023-04-25T18:21:49;6.45;;;2.63;;
77164;SDS011;66140;50.280;18.660;2023-04-25T18:24:18;5.45;;;2.15;;
77164;SDS011;66140;50.280;18.660;2023-04-25T18:26:48;5.80;;;2.40;;
77164;SDS011;66140;50.280;18.660;2023-04-25T18:29:17;3.55;;;2.05;;
77164;SDS011;66140;50.280;18.660;2023-04-25T18:31:45;4.22;;;2.60;;
77164;SDS011;66140;50.280;18.660;2023-04-25T18:34:22;4.57;;;2.55;;
77164;SDS011;66140;50.280;18.660;2023-04-25T18:39:24;3.17;;;2.25;;
77164;SDS011;66140;50.280;18.660;2023-04-25T18:41:50;5.20;;;2.42;;
77164;SDS011;66140;50.280;18.660;2023-04-25T18:44:25;6.35;;;2.90;;
77164;SDS011;66140;50.280;18.660;2023-04-25T18:46:51;4.43;;;2.40;;
77164;SDS011;66140;50.280;18.660;2023-04-25T18:49:17;4.88;;;2.53;;
77164;SDS011;66140;50.280;18.660;2023-04-25T18:51:43;4.95;;;2.45;;
77164;SDS011;66140;50.280;18.660;2023-04-25T18:54:11;4.88;;;2.67;;
77164;SDS011;66140;50.280;18.660;2023-04-25T18:56:37;5.82;;;2.67;;
77164;SDS011;66140;50.280;18.660;2023-04-25T18:59:04;5.28;;;2.60;;
77164;SDS011;66140;50.280;18.660;2023-04-25T19:01:29;6.80;;;2.78;;
77164;SDS011;66140;50.280;18.660;2023-04-25T19:03:55;7.03;;;2.60;;
77164;SDS011;66140;50.280;18.660;2023-04-25T19:06:21;9.75;;;4.43;;
77164;SDS011;66140;50.280;18.660;2023-04-25T19:08:53;6.07;;;2.55;;
77164;SDS011;66140;50.280;18.660;2023-04-25T19:11:20;7.50;;;3.38;;